Time;durP1;ratioP1;P1;durP2;ratioP2;P2;SDS_P1;SDS_P2;PMS_P1;PMS_P2;Temp;Humidity;BMP_temperature;BMP_pressure;BME280_temperature;BME280_humidity;BME280_pressure;Samples;Min_cycle;Max_cycle;Signal;HPM_P1;HPM_P2
2021/03/14 00:01:23;;;;;;;19.98;14.68;;;;;;;2.94;100.00;98560.05;1784783;79;20945;-68
2021/03/14 00:03:53;;;;;;;18.67;13.55;;;;;;;2.94;100.00;98560.05;1784830;79;21375;-67
2021/03/14 00:06:22;;;;;;;17.07;13.93;;;;;;;2.92;100.00;98547.86;1784792;79;21518;-67
2021/03/14 00:08:53;;;;;;;17.37;13.08;;;;;;;2.91;100.00;98548.70;1784786;79;20950;-67
2021/03/14 00:11:25;;;;;;;17.10;13.10;;;;;;;2.86;100.00;98536.92;1784786;79;21508;-67
2021/03/14 00:13:56;;;;;;;19.75;14.20;;;;;;;2.81;100.00;98538.55;1784938;79;20942;-66
2021/03/14 00:16:27;;;;;;;19.80;14.90;;;;;;;2.78;100.00;98532.00;1784687;79;20938;-66
2021/03/14 00:18:57;;;;;;;20.62;15.48;;;;;;;2.75;100.00;98530.65;1784901;79;21077;-67
2021/03/14 00:21:27;;;;;;;19.87;14.45;;;;;;;2.73;100.00;98533.66;1798447;78;20934;-67
2021/03/14 00:23:57;;;;;;;21.17;15.25;;;;;;;2.74;100.00;98532.80;1807870;78;21045;-67
2021/03/14 00:26:28;;;;;;;19.42;15.08;;;;;;;2.75;100.00;98524.14;1741398;81;20962;-68
2021/03/14 00:28:58;;;;;;;19.90;15.48;;;;;;;2.74;100.00;98517.17;1753417;81;21206;-67
2021/03/14 00:31:28;;;;;;;22.52;15.45;;;;;;;2.72;100.00;98525.39;1756812;81;21079;-67
2021/03/14 00:33:59;;;;;;;17.30;13.00;;;;;;;2.71;100.00;98511.92;1756559;81;21091;-67
2021/03/14 00:36:29;;;;;;;17.90;13.93;;;;;;;2.70;100.00;98514.95;1784298;80;20935;-65
2021/03/14 00:38:59;;;;;;;18.27;14.00;;;;;;;2.71;100.00;98508.02;1777679;80;21063;-65
2021/03/14 00:41:28;;;;;;;20.35;14.90;;;;;;;2.71;100.00;98504.11;1726653;82;21341;-66
2021/03/14 00:43:57;;;;;;;20.90;15.25;;;;;;;2.65;100.00;98501.00;1759737;79;20962;-66
2021/03/14 00:46:31;;;;;;;24.50;16.37;;;;;;;2.60;100.00;98493.97;1747368;81;20953;-66
2021/03/14 00:49:02;;;;;;;21.07;15.38;;;;;;;2.52;100.00;98498.64;1762040;81;20962;-67
2021/03/14 00:51:32;;;;;;;20.40;16.00;;;;;;;2.47;100.00;98489.88;1753245;81;20962;-66
2021/03/14 00:54:03;;;;;;;22.50;16.42;;;;;;;2.45;100.00;98488.11;1725383;81;21204;-65
2021/03/14 00:56:32;;;;;;;21.37;15.50;;;;;;;2.40;100.00;98480.23;1753169;81;20930;-66
2021/03/14 00:59:06;;;;;;;21.62;15.90;;;;;;;2.38;100.00;98476.73;1753078;81;20962;-67
2021/03/14 01:01:36;;;;;;;22.45;16.23;;;;;;;2.37;100.00;98478.01;1767017;81;20962;-66
2021/03/14 01:04:07;;;;;;;29.00;18.05;;;;;;;2.38;100.00;98481.06;1770338;81;20934;-66
2021/03/14 01:06:37;;;;;;;24.30;18.25;;;;;;;2.37;100.00;98482.78;1744566;81;21458;-67
2021/03/14 01:09:09;;;;;;;25.30;17.50;;;;;;;2.35;100.00;98479.25;1747429;81;20978;-67
2021/03/14 01:11:38;;;;;;;24.40;16.80;;;;;;;2.35;100.00;98472.75;1747694;81;20943;-67
2021/03/14 01:14:10;;;;;;;24.10;16.37;;;;;;;2.30;100.00;98481.33;1764365;81;21215;-67
2021/03/14 01:16:43;;;;;;;23.80;15.90;;;;;;;2.29;100.00;98484.36;1763258;80;21117;-67
2021/03/14 01:19:14;;;;;;;20.72;15.43;;;;;;;2.26;100.00;98480.41;1770724;80;21375;-66
2021/03/14 01:21:43;;;;;;;21.35;15.30;;;;;;;2.25;100.00;98485.59;1756702;80;21065;-66
2021/03/14 01:24:13;;;;;;;22.58;15.70;;;;;;;2.27;100.00;98487.36;1732219;82;21027;-67
2021/03/14 01:26:43;;;;;;;19.75;14.90;;;;;;;2.31;100.00;98475.28;1723227;81;21142;-66
2021/03/14 01:29:14;;;;;;;21.50;15.45;;;;;;;2.34;100.00;98473.59;1734046;82;21120;-67
2021/03/14 01:31:44;;;;;;;24.85;15.28;;;;;;;2.36;100.00;98482.30;1741763;81;21382;-67
2021/03/14 01:34:14;;;;;;;20.97;14.55;;;;;;;2.39;100.00;98482.38;1748530;81;21156;-66
2021/03/14 01:36:43;;;;;;;19.57;14.05;;;;;;;2.41;100.00;98483.28;1750376;81;21228;-66
2021/03/14 01:39:12;;;;;;;21.45;15.68;;;;;;;2.45;100.00;98484.20;1724344;82;21841;-67
2021/03/14 01:41:42;;;;;;;22.73;14.75;;;;;;;2.48;100.00;98477.73;1789234;79;20923;-67
2021/03/14 01:44:12;;;;;;;20.65;14.23;;;;;;;2.48;100.00;98471.23;1805920;79;21329;-66
2021/03/14 01:46:43;;;;;;;22.90;16.02;;;;;;;2.48;100.00;98477.31;1802478;79;21500;-67
2021/03/14 01:49:14;;;;;;;20.57;16.10;;;;;;;2.46;100.00;98479.02;1802836;78;21080;-67
2021/03/14 01:51:44;;;;;;;18.92;13.85;;;;;;;2.49;100.00;98487.30;1780406;79;21231;-67
2021/03/14 01:54:14;;;;;;;19.87;14.18;;;;;;;2.51;100.00;98492.11;1767164;79;20934;-66
2021/03/14 01:56:44;;;;;;;20.82;15.55;;;;;;;2.55;100.00;98494.33;1799755;79;21369;-67
2021/03/14 01:59:14;;;;;;;20.20;15.08;;;;;;;2.55;100.00;98504.73;1707858;82;20971;-67
2021/03/14 02:01:43;;;;;;;20.35;14.13;;;;;;;2.58;100.00;98508.27;1732973;81;21526;-66
2021/03/14 02:04:12;;;;;;;19.95;14.60;;;;;;;2.61;100.00;98512.64;1722431;83;20940;-67
2021/03/14 02:06:42;;;;;;;19.62;15.10;;;;;;;2.63;100.00;98512.23;1722418;83;21101;-67
2021/03/14 02:09:11;;;;;;;21.17;14.85;;;;;;;2.63;100.00;98509.64;1746821;81;21488;-67
2021/03/14 02:11:42;;;;;;;19.35;14.33;;;;;;;2.66;100.00;98507.08;1783904;79;20947;-67
2021/03/14 02:14:14;;;;;;;21.52;15.60;;;;;;;2.69;100.00;98498.01;1806831;79;21501;-66
2021/03/14 02:16:44;;;;;;;20.57;14.95;;;;;;;2.67;100.00;98500.59;1762428;80;21048;-67
2021/03/14 02:19:20;;;;;;;19.62;15.28;;;;;;;2.67;100.00;98503.62;1682219;84;21073;-67
2021/03/14 02:21:50;;;;;;;19.05;14.03;;;;;;;2.67;100.00;98493.20;1724961;83;21423;-67
2021/03/14 02:24:25;;;;;;;;;;;;;;;2.66;100.00;98494.05;1744091;82;21517;-67
2021/03/14 02:27:05;;;;;;;17.77;13.83;;;;;;;2.60;100.00;98495.27;1725297;83;20116;-67
2021/03/14 02:29:35;;;;;;;20.35;14.23;;;;;;;2.58;100.00;98499.16;1704661;81;21516;-67
2021/03/14 02:32:05;;;;;;;15.90;13.10;;;;;;;2.55;100.00;98494.33;1726019;82;20966;-66
2021/03/14 02:34:38;;;;;;;19.90;13.88;;;;;;;2.57;100.00;98493.92;1727435;81;22193;-67
2021/03/14 02:37:07;;;;;;;22.10;15.30;;;;;;;2.57;100.00;98501.31;1748889;81;21087;-67
2021/03/14 02:39:37;;;;;;;20.60;14.20;;;;;;;2.61;100.00;98497.90;1684437;84;20974;-67
2021/03/14 02:42:08;;;;;;;16.97;13.00;;;;;;;2.61;100.00;98495.72;1667862;86;20958;-67
2021/03/14 02:44:48;;;;;;;19.10;14.25;;;;;;;2.62;100.00;98494.87;1668012;84;21113;-66
2021/03/14 02:47:22;;;;;;;23.20;15.80;;;;;;;2.62;100.00;98494.87;1669478;84;21315;-67
2021/03/14 02:49:53;;;;;;;21.02;15.05;;;;;;;2.62;100.00;98497.47;1751943;81;20998;-67
2021/03/14 02:52:24;;;;;;;24.95;16.07;;;;;;;2.59;100.00;98497.00;1695418;84;21010;-67
2021/03/14 02:54:54;;;;;;;24.80;15.70;;;;;;;2.52;100.00;98484.31;1756283;81;21018;-67
2021/03/14 02:57:24;;;;;;;23.20;16.75;;;;;;;2.44;100.00;98488.53;1714253;82;21115;-66
2021/03/14 02:59:55;;;;;;;21.73;15.68;;;;;;;2.38;100.00;98493.64;1729520;81;21402;-67
2021/03/14 03:02:26;;;;;;;24.37;16.27;;;;;;;2.36;100.00;98494.02;1742269;81;20978;-67
2021/03/14 03:04:56;;;;;;;20.15;15.43;;;;;;;2.33;100.00;98500.90;1693869;84;20978;-66
2021/03/14 03:07:25;;;;;;;21.23;14.53;;;;;;;2.34;100.00;98502.22;1755269;81;21130;-66
2021/03/14 03:09:55;;;;;;;17.42;13.05;;;;;;;2.35;100.00;98497.89;1726109;82;21557;-66
2021/03/14 03:12:25;;;;;;;18.87;14.05;;;;;;;2.35;100.00;98501.80;1739967;81;21381;-66
2021/03/14 03:14:56;;;;;;;19.30;14.25;;;;;;;2.31;100.00;98493.06;1740444;81;21565;-66
2021/03/14 03:17:27;;;;;;;21.75;15.55;;;;;;;2.32;100.00;98497.84;1756383;81;20918;-66
2021/03/14 03:19:57;;;;;;;17.82;13.88;;;;;;;2.33;100.00;98495.27;1702980;84;21081;-66
2021/03/14 03:22:28;;;;;;;21.05;14.55;;;;;;;2.35;100.00;98487.48;1748829;81;20935;-66
2021/03/14 03:24:59;;;;;;;21.73;16.12;;;;;;;2.34;100.00;98490.94;1740417;81;21463;-65
2021/03/14 03:27:29;;;;;;;;;;;;;;;2.27;100.00;98484.77;1751089;82;21085;-66
2021/03/14 03:29:59;;;;;;;19.50;13.78;;;;;;;2.28;100.00;98480.00;1747888;81;20156;-66
2021/03/14 03:32:29;;;;;;;19.67;13.90;;;;;;;2.28;100.00;98480.44;1744071;81;21085;-67
2021/03/14 03:34:58;;;;;;;22.37;16.12;;;;;;;2.30;100.00;98475.70;1743859;82;20939;-66
2021/03/14 03:37:30;;;;;;;18.75;14.38;;;;;;;2.29;100.00;98470.05;1797584;78;21369;-66
2021/03/14 03:40:04;;;;;;;22.10;16.48;;;;;;;2.30;100.00;98478.73;1789729;79;21070;-66
2021/03/14 03:42:43;;;;;;;17.73;13.32;;;;;;;2.31;100.00;98478.75;1793428;79;21518;-66
2021/03/14 03:45:13;;;;;;;20.80;15.40;;;;;;;2.32;100.00;98474.00;1726179;79;21461;-66
2021/03/14 03:47:47;;;;;;;19.37;14.98;;;;;;;2.30;100.00;98487.84;1805484;79;20915;-66
2021/03/14 03:50:16;;;;;;;21.45;16.05;;;;;;;2.28;100.00;98483.03;1805699;78;21465;-66
2021/03/14 03:52:47;;;;;;;21.97;15.70;;;;;;;2.24;100.00;98474.30;1804959;78;21053;-67
2021/03/14 03:55:17;;;;;;;22.50;16.23;;;;;;;2.27;100.00;98471.75;1763991;80;20939;-66
2021/03/14 03:57:46;;;;;;;22.27;15.50;;;;;;;2.24;100.00;98476.03;1761341;80;20888;-66
2021/03/14 04:00:20;;;;;;;22.32;15.75;;;;;;;2.26;100.00;98467.40;1796891;79;21457;-67
2021/03/14 04:02:48;;;;;;;20.20;14.60;;;;;;;2.23;100.00;98468.66;1712150;82;22386;-67
2021/03/14 04:05:18;;;;;;;20.65;14.90;;;;;;;2.25;100.00;98469.98;1734383;82;21086;-66
2021/03/14 04:07:49;;;;;;;17.65;13.62;;;;;;;2.25;100.00;98472.16;1737042;82;20911;-66
2021/03/14 04:10:22;;;;;;;17.10;13.28;;;;;;;2.26;100.00;98468.70;1735868;81;21083;-67
2021/03/14 04:12:51;;;;;;;18.95;15.03;;;;;;;2.22;100.00;98459.09;1740038;81;21091;-67
2021/03/14 04:15:24;;;;;;;18.80;14.50;;;;;;;2.24;100.00;98466.50;1727367;82;21508;-67
2021/03/14 04:17:53;;;;;;;18.75;14.23;;;;;;;2.26;100.00;98463.49;1733749;81;20979;-66
2021/03/14 04:20:33;;;;;;;18.77;13.85;;;;;;;2.23;100.00;98456.94;1695013;83;21537;-67
2021/03/14 04:23:13;;;;;;;18.67;14.23;;;;;;;2.26;100.00;98471.73;1743512;81;20983;-67
2021/03/14 04:25:43;;;;;;;19.62;14.43;;;;;;;2.28;100.00;98464.82;1772924;80;20909;-67
2021/03/14 04:28:13;;;;;;;19.25;14.18;;;;;;;2.24;100.00;98466.92;1775393;80;21379;-67
2021/03/14 04:30:42;;;;;;;18.40;13.68;;;;;;;2.18;100.00;98455.99;1711479;82;21525;-67
2021/03/14 04:33:11;;;;;;;16.62;12.93;;;;;;;2.18;100.00;98459.89;1777191;79;20974;-66
2021/03/14 04:35:40;;;;;;;19.23;13.18;;;;;;;2.14;100.00;98454.20;1810344;78;20919;-66
2021/03/14 04:38:10;;;;;;;16.40;12.25;;;;;;;2.11;100.00;98455.02;1746522;80;21473;-67
2021/03/14 04:40:39;;;;;;;16.17;12.78;;;;;;;2.14;100.00;98447.69;1692916;83;22130;-66
2021/03/14 04:43:08;;;;;;;15.35;11.30;;;;;;;2.18;100.00;98441.69;1752248;80;21095;-65
2021/03/14 04:45:38;;;;;;;14.40;10.80;;;;;;;2.18;100.00;98423.47;1810892;78;21073;-66
2021/03/14 04:48:08;;;;;;;13.98;10.93;;;;;;;2.20;100.00;98423.94;1809431;79;20934;-65
2021/03/14 04:50:40;;;;;;;15.35;11.60;;;;;;;2.22;100.00;98430.47;1779208;79;21079;-66
2021/03/14 04:53:09;;;;;;;18.25;13.85;;;;;;;2.23;100.00;98420.94;1784119;79;21405;-66
2021/03/14 04:55:39;;;;;;;20.82;14.50;;;;;;;2.20;100.00;98425.67;1782243;79;21493;-66
2021/03/14 04:58:11;;;;;;;19.32;14.40;;;;;;;2.15;100.00;98416.92;1809905;77;20950;-66
2021/03/14 05:00:41;;;;;;;21.82;15.15;;;;;;;2.12;100.00;98420.78;1772206;79;21089;-67
2021/03/14 05:03:12;;;;;;;22.60;14.98;;;;;;;2.08;100.00;98420.28;1813753;78;20926;-66
2021/03/14 05:05:43;;;;;;;18.23;13.80;;;;;;;2.02;100.00;98421.06;1813719;78;22277;-65
2021/03/14 05:08:20;;;;;;;18.95;13.68;;;;;;;1.96;100.00;98423.98;1812048;78;20964;-65
2021/03/14 05:10:54;;;;;;;18.25;13.70;;;;;;;1.89;100.00;98418.69;1814839;77;20934;-66
2021/03/14 05:13:25;;;;;;;17.98;12.95;;;;;;;1.84;100.00;98413.80;1743780;81;20982;-66
2021/03/14 05:15:54;;;;;;;18.17;13.88;;;;;;;1.80;100.00;98418.93;1716607;82;21077;-66
2021/03/14 05:18:23;;;;;;;16.55;12.73;;;;;;;1.79;100.00;98418.48;1791487;79;21403;-67
2021/03/14 05:20:53;;;;;;;19.85;13.95;;;;;;;1.82;100.00;98417.23;1766862;79;21117;-64
2021/03/14 05:23:22;;;;;;;15.65;12.53;;;;;;;1.81;100.00;98407.68;1791052;77;20926;-65
2021/03/14 05:25:52;;;;;;;16.07;12.23;;;;;;;1.82;100.00;98402.93;1776964;79;21065;-65
2021/03/14 05:28:22;;;;;;;15.28;11.97;;;;;;;1.81;100.00;98404.66;1774093;80;21474;-65
2021/03/14 05:30:51;;;;;;;16.67;12.03;;;;;;;1.80;100.00;98402.91;1792428;79;22008;-65
2021/03/14 05:33:21;;;;;;;15.48;11.93;;;;;;;1.81;100.00;98398.58;1780484;79;20999;-66
2021/03/14 05:35:50;;;;;;;15.78;12.03;;;;;;;1.84;100.00;98395.60;1773986;80;20939;-65
2021/03/14 05:38:19;;;;;;;16.93;12.70;;;;;;;1.89;100.00;98401.78;1797399;79;20935;-64
2021/03/14 05:40:48;;;;;;;16.02;12.15;;;;;;;1.89;100.00;98406.08;1726678;82;20882;-65
2021/03/14 05:43:17;;;;;;;14.75;11.88;;;;;;;1.89;100.00;98413.48;1790073;79;21262;-65
2021/03/14 05:45:46;;;;;;;17.35;12.60;;;;;;;1.89;100.00;98415.18;1809317;79;21061;-65
2021/03/14 05:48:15;;;;;;;16.20;11.83;;;;;;;1.89;100.00;98417.78;1802041;79;20943;-65
2021/03/14 05:50:45;;;;;;;15.40;11.70;;;;;;;1.94;100.00;98416.59;1809545;79;21054;-65
2021/03/14 05:53:15;;;;;;;19.55;12.33;;;;;;;1.95;100.00;98413.13;1796514;79;21535;-65
2021/03/14 05:55:45;;;;;;;17.10;12.20;;;;;;;2.01;100.00;98414.53;1764177;80;21441;-64
2021/03/14 05:58:14;;;;;;;12.45;10.30;;;;;;;2.06;100.00;98412.45;1706700;82;21098;-64
2021/03/14 06:00:46;;;;;;;16.45;11.80;;;;;;;2.08;100.00;98409.88;1765776;80;20940;-65
2021/03/14 06:03:15;;;;;;;14.30;11.30;;;;;;;2.05;100.00;98416.33;1761893;80;20975;-63
2021/03/14 06:05:45;;;;;;;15.55;11.83;;;;;;;2.03;100.00;98412.83;1755432;80;21493;-64
2021/03/14 06:08:14;;;;;;;13.62;11.10;;;;;;;2.03;100.00;98418.03;1753428;80;22202;-63
2021/03/14 06:10:45;;;;;;;14.73;11.18;;;;;;;2.01;100.00;98421.91;1770394;80;21517;-64
2021/03/14 06:13:14;;;;;;;15.40;11.83;;;;;;;2.03;100.00;98418.03;1769750;80;20986;-64
2021/03/14 06:15:43;;;;;;;13.22;10.53;;;;;;;2.04;100.00;98426.28;1764550;80;21540;-63
2021/03/14 06:18:12;;;;;;;13.78;10.68;;;;;;;2.06;100.00;98430.66;1738885;82;21177;-63
2021/03/14 06:20:42;;;;;;;15.05;11.30;;;;;;;2.08;100.00;98430.27;1718275;82;21320;-64
2021/03/14 06:23:13;;;;;;;12.60;10.60;;;;;;;2.08;100.00;98422.45;1766104;80;21641;-63
2021/03/14 06:25:45;;;;;;;12.55;10.13;;;;;;;2.10;100.00;98425.95;1770042;80;21012;-64
2021/03/14 06:28:15;;;;;;;16.00;11.38;;;;;;;2.10;100.00;98422.05;1789529;79;21017;-63
2021/03/14 06:30:44;;;;;;;13.30;9.90;;;;;;;2.11;100.00;98429.01;1788595;79;20972;-64
2021/03/14 06:33:18;;;;;;;13.35;10.28;;;;;;;2.17;100.00;98433.43;1765017;80;21235;-64
2021/03/14 06:35:52;;;;;;;12.03;9.68;;;;;;;2.20;100.00;98443.46;1748266;81;21005;-64
2021/03/14 06:38:29;;;;;;;13.53;10.55;;;;;;;2.27;100.00;98444.85;1760271;81;21485;-65
2021/03/14 06:41:18;;;;;;;11.35;9.70;;;;;;;2.29;100.00;98447.92;1779962;79;20951;-64
2021/03/14 06:43:52;;;;;;;13.45;10.38;;;;;;;2.32;100.00;98442.77;1745486;81;21110;-64
2021/03/14 06:46:28;;;;;;;14.60;11.30;;;;;;;2.33;100.00;98452.33;1750566;81;26594;-64
2021/03/14 06:49:12;;;;;;;12.55;9.93;;;;;;;2.37;100.00;98446.34;1757505;81;20982;-64
2021/03/14 06:51:45;;;;;;;13.05;10.18;;;;;;;2.41;100.00;98448.14;1779028;79;20959;-64
2021/03/14 06:54:36;;;;;;;10.48;9.03;;;;;;;2.41;100.00;98446.84;1744176;81;21220;-64
2021/03/14 06:57:19;;;;;;;13.00;10.53;;;;;;;2.43;100.00;98444.27;1781931;79;21514;-64
2021/03/14 06:59:55;;;;;;;13.00;9.75;;;;;;;2.43;100.00;98433.84;1787619;78;21344;-64
2021/03/14 07:02:31;;;;;;;11.50;9.40;;;;;;;2.46;100.00;98438.67;1742362;81;20970;-65
2021/03/14 07:05:07;;;;;;;13.30;9.58;;;;;;;2.50;100.00;98440.89;1744547;81;21120;-65
2021/03/14 07:07:42;;;;;;;10.03;8.95;;;;;;;2.51;100.00;98448.72;1747856;81;21120;-63
2021/03/14 07:10:13;;;;;;;11.68;9.60;;;;;;;2.53;100.00;98444.41;1754851;81;21485;-64
2021/03/14 07:12:44;;;;;;;10.13;8.75;;;;;;;2.55;100.00;98438.36;1802557;79;22191;-64
2021/03/14 07:15:16;;;;;;;11.45;9.45;;;;;;;2.58;100.00;98434.06;1767215;81;20934;-64
2021/03/14 07:17:53;;;;;;;11.38;9.43;;;;;;;2.60;100.00;98436.69;1748685;81;21066;-64
2021/03/14 07:20:26;;;;;;;11.60;9.20;;;;;;;2.66;100.00;98444.59;1779050;79;20944;-65
2021/03/14 07:23:06;;;;;;;12.18;9.43;;;;;;;2.63;100.00;98440.64;1734002;81;20911;-64
2021/03/14 07:25:42;;;;;;;10.38;8.73;;;;;;;2.58;100.00;98446.20;1742349;81;21203;-64
2021/03/14 07:28:13;;;;;;;10.55;8.93;;;;;;;2.60;100.00;98453.19;1779154;80;21540;-64
2021/03/14 07:30:42;;;;;;;9.93;8.63;;;;;;;2.61;100.00;98451.45;1780572;80;20952;-64
2021/03/14 07:33:12;;;;;;;11.85;9.38;;;;;;;2.63;100.00;98463.64;1736669;80;21515;-74
2021/03/14 07:35:41;;;;;;;11.22;9.13;;;;;;;2.65;100.00;98463.23;1767484;80;20971;-66
2021/03/14 07:38:11;;;;;;;10.63;9.13;;;;;;;2.70;100.00;98454.19;1780866;80;21198;-64
2021/03/14 07:40:40;;;;;;;11.43;9.50;;;;;;;2.77;100.00;98454.72;1731650;82;20966;-66
2021/03/14 07:43:09;;;;;;;9.70;8.70;;;;;;;2.84;100.00;98456.16;1763665;80;20919;-65
2021/03/14 07:45:38;;;;;;;12.40;9.40;;;;;;;2.95;100.00;98452.81;1814766;79;21069;-66
2021/03/14 07:48:08;;;;;;;11.70;9.15;;;;;;;3.00;100.00;98446.80;1816545;79;20903;-66
2021/03/14 07:50:44;;;;;;;10.68;9.20;;;;;;;3.01;100.00;98434.22;1754112;79;21451;-66
2021/03/14 07:53:15;;;;;;;11.60;9.70;;;;;;;3.09;100.00;98431.28;1810306;79;21129;-65
2021/03/14 07:55:48;;;;;;;10.43;9.30;;;;;;;3.14;100.00;98424.39;1747559;81;20957;-65
2021/03/14 07:58:18;;;;;;;10.58;9.23;;;;;;;3.20;100.00;98426.62;1756105;80;20895;-66
2021/03/14 08:00:48;;;;;;;12.23;10.48;;;;;;;3.26;100.00;98433.20;1687069;80;21498;-65
2021/03/14 08:03:17;;;;;;;10.82;8.93;;;;;;;3.29;100.00;98443.66;1769428;79;22347;-66
2021/03/14 08:05:47;;;;;;;11.65;9.40;;;;;;;3.31;100.00;98438.04;1799033;79;21080;-66
2021/03/14 08:08:34;;;;;;;11.40;9.78;;;;;;;3.32;100.00;98438.09;1752036;82;20942;-66
2021/03/14 08:11:03;;;;;;;11.30;9.55;;;;;;;3.28;100.00;98427.16;1749393;81;20915;-65
2021/03/14 08:13:38;;;;;;;10.98;9.13;;;;;;;3.30;100.00;98434.98;1720005;82;21097;-66
2021/03/14 08:16:08;;;;;;;12.98;10.13;;;;;;;3.32;100.00;98435.91;1765591;78;21249;-65
2021/03/14 08:18:50;;;;;;;12.20;9.65;;;;;;;3.35;100.00;98433.34;1731141;82;20970;-65
2021/03/14 08:21:30;;;;;;;10.45;8.90;;;;;;;3.41;100.00;98424.28;1802091;79;20937;-66
2021/03/14 08:24:02;;;;;;;;;;;;;;;3.47;100.00;98416.09;1738558;82;21101;-66
2021/03/14 08:26:35;;;;;;;11.63;10.20;;;;;;;3.54;100.00;98401.37;1740263;82;20241;-65
2021/03/14 08:29:14;;;;;;;12.85;9.88;;;;;;;3.58;100.00;98391.42;1746388;81;21388;-64
2021/03/14 08:31:50;;;;;;;11.83;9.80;;;;;;;3.59;100.00;98401.42;1811723;79;21076;-64
2021/03/14 08:34:33;;;;;;;13.70;10.03;;;;;;;3.68;100.00;98400.20;1745575;82;21093;-63
2021/03/14 08:37:21;;;;;;;11.08;9.50;;;;;;;3.76;100.00;98390.28;1813063;79;21069;-63
2021/03/14 08:39:59;;;;;;;10.98;9.05;;;;;;;3.82;100.00;98386.01;1716011;82;21055;-63
2021/03/14 08:42:54;;;;;;;13.62;11.03;;;;;;;3.94;100.00;98376.97;1779139;80;21372;-63
2021/03/14 08:45:28;;;;;;;12.13;10.80;;;;;;;4.04;100.00;98369.22;1804834;79;20986;-62
2021/03/14 08:48:05;;;;;;;13.43;10.72;;;;;;;4.14;100.00;98371.89;1746154;82;20993;-62
2021/03/14 08:50:37;;;;;;;12.47;10.70;;;;;;;4.21;100.00;98383.69;1735298;82;21496;-63
2021/03/14 08:53:16;;;;;;;12.05;10.58;;;;;;;4.32;100.00;98376.83;1818242;78;23280;-63
2021/03/14 08:55:47;;;;;;;12.98;11.20;;;;;;;4.34;100.00;98370.31;1787829;79;20883;-63
2021/03/14 08:58:17;;;;;;;13.20;10.90;;;;;;;4.42;100.00;98364.70;1713792;82;22229;-63
2021/03/14 09:01:08;;;;;;;13.05;11.63;;;;;;;4.55;100.00;98368.25;1744287;81;20997;-63
2021/03/14 09:03:45;;;;;;;12.07;10.78;;;;;;;4.64;100.00;98373.09;1780390;80;21030;-65
2021/03/14 09:06:29;;;;;;;12.35;10.43;;;;;;;4.73;100.00;98356.19;1772738;80;21076;-64
2021/03/14 09:09:16;;;;;;;13.20;11.12;;;;;;;4.80;100.00;98361.00;1763282;80;21015;-64
2021/03/14 09:11:58;;;;;;;12.65;10.32;;;;;;;4.91;100.00;98350.16;1749410;80;21390;-65
2021/03/14 09:14:42;;;;;;;13.78;10.68;;;;;;;5.01;100.00;98345.39;1762576;79;21040;-68
2021/03/14 09:17:18;;;;;;;12.25;10.65;;;;;;;5.09;100.00;98349.33;1768989;80;21081;-63
2021/03/14 09:19:53;;;;;;;13.80;11.28;;;;;;;5.16;100.00;98341.08;1767308;79;20993;-65
2021/03/14 09:22:27;;;;;;;13.15;10.88;;;;;;;5.29;100.00;98340.26;1742411;82;21081;-65
2021/03/14 09:25:05;;;;;;;14.70;11.68;;;;;;;5.34;100.00;98330.68;1739023;81;21384;-64
2021/03/14 09:27:40;;;;;;;15.10;11.08;;;;;;;5.38;100.00;98331.12;1738792;82;20915;-64
2021/03/14 09:30:18;;;;;;;13.20;11.55;;;;;;;5.41;100.00;98338.97;1742868;81;20967;-65
2021/03/14 09:32:50;;;;;;;13.20;10.85;;;;;;;5.48;100.00;98337.23;1707610;82;21065;-64
2021/03/14 09:35:29;;;;;;;14.15;11.15;;;;;;;5.57;100.00;98325.03;1723938;80;21188;-65
2021/03/14 09:38:03;;;;;;;14.93;12.47;;;;;;;5.74;100.00;98335.53;1742201;81;21387;-64
2021/03/14 09:40:40;;;;;;;15.35;12.80;;;;;;;5.86;100.00;98321.56;1753698;81;21034;-64
2021/03/14 09:43:22;;;;;;;13.55;11.35;;;;;;;5.95;100.00;98330.31;1763365;80;20942;-64
2021/03/14 09:45:59;;;;;;;17.10;11.43;;;;;;;6.06;100.00;98325.50;1737975;79;20919;-64
2021/03/14 09:48:33;;;;;;;15.65;12.60;;;;;;;6.15;100.00;98316.33;1770404;80;21018;-64
2021/03/14 09:51:09;;;;;;;15.45;12.98;;;;;;;6.33;100.00;98315.44;1747362;80;21582;-66
2021/03/14 09:53:41;;;;;;;13.13;11.70;;;;;;;6.51;100.00;98306.21;1739961;80;21108;-65
2021/03/14 09:56:15;;;;;;;13.22;11.38;;;;;;;6.66;100.00;98307.94;1746541;81;21501;-64
2021/03/14 09:58:47;;;;;;;16.67;12.90;;;;;;;6.90;100.00;98299.52;1699564;82;20896;-64
2021/03/14 10:01:17;;;;;;;14.38;12.15;;;;;;;7.01;100.00;98289.41;1750677;81;20938;-64
2021/03/14 10:03:54;;;;;;;15.78;13.22;;;;;;;7.10;100.00;98289.38;1742910;81;21271;-65
2021/03/14 10:06:27;;;;;;;16.17;13.30;;;;;;;7.20;100.00;98283.20;1730407;81;21096;-65
2021/03/14 10:08:59;;;;;;;15.93;13.45;;;;;;;7.33;100.00;98280.92;1723060;82;21009;-65
2021/03/14 10:11:28;;;;;;;16.37;13.35;;;;;;;7.37;100.00;98281.77;1744447;81;21049;-66
2021/03/14 10:14:00;;;;;;;15.88;13.10;;;;;;;7.36;100.00;98284.83;1753967;81;21017;-66
2021/03/14 10:16:32;;;;;;;17.32;13.20;;;;;;;7.43;100.00;98283.91;1753755;81;21571;-65
2021/03/14 10:19:03;;;;;;;;;;;;;;;7.57;100.00;98291.27;1755961;81;20954;-65
2021/03/14 10:21:43;;;;;;;16.42;13.55;;;;;;;7.70;100.00;98289.41;1748594;80;20171;-66
2021/03/14 10:24:24;;;;;;;17.80;14.35;;;;;;;7.71;100.00;98289.83;1734784;81;21138;-65
2021/03/14 10:27:04;;;;;;;17.75;13.75;;;;;;;7.72;100.00;98281.52;1730576;81;21069;-66
2021/03/14 10:29:39;;;;;;;14.40;12.23;;;;;;;7.79;100.00;98288.02;1729269;81;21671;-65
2021/03/14 10:32:25;;;;;;;16.85;12.65;;;;;;;7.92;100.00;98281.33;1742740;81;20954;-65
2021/03/14 10:34:58;;;;;;;15.48;12.90;;;;;;;7.98;100.00;98275.58;1711520;83;21522;-65
2021/03/14 10:37:35;;;;;;;17.07;13.72;;;;;;;8.02;100.00;98278.60;1734691;82;21590;-65
2021/03/14 10:40:15;;;;;;;16.52;13.68;;;;;;;8.05;100.00;98278.60;1738296;81;21267;-65
2021/03/14 10:42:49;;;;;;;17.07;13.48;;;;;;;8.12;100.00;98280.72;1772849;79;22067;-65
2021/03/14 10:45:23;;;;;;;16.27;13.85;;;;;;;8.18;100.00;98270.16;1742355;82;21162;-66
2021/03/14 10:48:03;;;;;;;18.80;14.05;;;;;;;8.21;100.00;98268.36;1743394;82;21087;-65
2021/03/14 10:50:41;;;;;;;17.85;14.18;;;;;;;8.28;100.00;98263.04;1743950;82;21087;-65
2021/03/14 10:53:17;;;;;;;19.00;14.45;;;;;;;8.17;100.00;98260.53;1739094;81;20954;-65
2021/03/14 10:55:53;;;;;;;16.75;13.90;;;;;;;8.16;100.00;98263.60;1769700;79;21286;-65
2021/03/14 10:58:23;;;;;;;;;;;;;;;8.05;100.00;98273.35;1688560;82;21486;-64
2021/03/14 11:01:03;;;;;;;17.35;14.15;;;;;;;7.95;100.00;98258.54;1738616;80;20158;-67
2021/03/14 11:03:40;;;;;;;18.12;14.60;;;;;;;7.86;100.00;98259.95;1753557;80;20930;-66
2021/03/14 11:06:24;;;;;;;19.60;15.05;;;;;;;7.83;100.00;98257.34;1721568;82;21158;-66
2021/03/14 11:09:06;;;;;;;19.32;15.50;;;;;;;7.70;100.00;98271.47;1729469;81;21500;-67
2021/03/14 11:11:48;;;;;;;17.07;14.10;;;;;;;7.63;100.00;98260.59;1772900;79;21705;-67
2021/03/14 11:14:38;;;;;;;19.23;14.95;;;;;;;7.58;100.00;98259.33;1720703;82;20951;-67
2021/03/14 11:17:14;;;;;;;;;;;;;;;7.57;100.00;98254.52;1714696;83;21041;-67
2021/03/14 11:19:47;;;;;;;17.87;14.33;;;;;;;7.60;100.00;98259.31;1715878;83;20509;-67
2021/03/14 11:22:19;;;;;;;19.32;16.25;;;;;;;7.56;100.00;98250.13;1781210;79;21179;-68
2021/03/14 11:24:51;;;;;;;20.90;17.05;;;;;;;7.55;100.00;98252.76;1743731;80;20963;-67
2021/03/14 11:27:21;;;;;;;22.62;18.10;;;;;;;7.49;100.00;98245.81;1720770;83;21505;-67
2021/03/14 11:29:50;;;;;;;22.95;17.45;;;;;;;7.41;100.00;98246.31;1743714;80;20950;-67
2021/03/14 11:32:22;;;;;;;22.35;17.85;;;;;;;7.30;100.00;98240.28;1739617;82;21015;-69
2021/03/14 11:35:11;;;;;;;27.67;19.75;;;;;;;7.20;100.00;98234.67;1837292;76;22890;-67
2021/03/14 11:38:00;;;;;;;25.92;19.27;;;;;;;6.96;100.00;98227.82;1807277;78;20934;-67
2021/03/14 11:40:38;;;;;;;23.83;18.92;;;;;;;6.78;100.00;98217.45;1807972;79;21201;-69
2021/03/14 11:43:26;;;;;;;23.02;18.57;;;;;;;6.70;100.00;98204.83;1807563;79;20997;-68
2021/03/14 11:46:01;;;;;;;26.80;20.23;;;;;;;6.62;100.00;98198.30;1807411;78;21061;-69